18:46
Airports
Links
Donate
Help keep this website running!
PayPal
Bitcoin
METAR
KPDX 211753Z 31004KT 10SM FEW030 BKN250 M01/M04 A3035 RMK AO2 SLP276 T10061039 11006 21050 52005
Current Weather Conditions at KPDX
VFR 17:53:00 21-02-18
Automated station
Altimeter:30.35 hg
Temp:-0.6°c 32°f
Dew point:-3.9°c 27°f
Wind:4 knots, 4.6 mph, 2 m/s, from 310°
Visibility:10.0 statute miles
25000(BKN) Broken
3000(FEW) A few
Past METAR reports
VFR 16:53:00 21-02-18
Automated station
Altimeter:30.34 hg
Temp:-1.1°c 30°f
Dew point:-3.9°c 27°f
Wind:0 knots, 0 mph, 0 m/s,
Variable direction
Visibility:10.0 statute miles
25000(BKN) Broken
KPDX 211653Z 00000KT 10SM BKN250 M01/M04 A3034 RMK AO2 SLP273 T10111039
VFR 15:53:00 21-02-18
Automated station
Altimeter:30.34 hg
Temp:-4.4°c 25°f
Dew point:-5.0°c 23°f
Wind:3 knots, 3.5 mph, 2 m/s, from 260°
Visibility:10.0 statute miles
24000(BKN) Broken
6000(FEW) A few
KPDX 211553Z 26003KT 10SM FEW060 BKN240 M04/M05 A3034 RMK AO2 SLP275 T10441050
VFR 14:53:00 21-02-18
Automated station
Altimeter:30.33 hg
Temp:-3.3°c 27°f
Dew point:-5.0°c 23°f
Wind:3 knots, 3.5 mph, 2 m/s, from 290°
Visibility:10.0 statute miles
24000(BKN) Broken
6000(FEW) A few
KPDX 211453Z 29003KT 10SM FEW060 BKN240 M03/M05 A3033 RMK AO2 SLP272 T10331050 53018
VFR 13:53:00 21-02-18
Automated station
Altimeter:30.32 hg
Temp:-2.2°c 28°f
Dew point:-5.6°c 23°f
Wind:0 knots, 0 mph, 0 m/s,
Variable direction
Visibility:10.0 statute miles
6000(SCT) Scattered
KPDX 211353Z 00000KT 10SM SCT060 M02/M06 A3032 RMK AO2 SLP266 T10221056
VFR 12:53:00 21-02-18
Automated station
Altimeter:30.29 hg
Temp:-2.2°c 28°f
Dew point:-5.0°c 23°f
Wind:0 knots, 0 mph, 0 m/s,
Variable direction
Visibility:10.0 statute miles
5500(BKN) Broken
KPDX 211253Z 00000KT 10SM BKN055 M02/M05 A3029 RMK AO2 SLP257 T10221050
TAF
KPDX 211800Z 2118/2218 31004KT P6SM SCT150 BKN250 FM212100 27004KT P6SM SCT150 BKN250 FM220200 VRB02KT P6SM VCSH BKN040 OVC100 FM220500 12006KT 4SM -SN SCT015 OVC030 FM220700 12006KT 1/2SM SN BKN006 OVC015 FM221200 09005KT 4SM -SN SCT006 BKN012 OVC025 FM221500 04005KT P6SM SCT025 BKN100
Forecast at KPDX
18:00 21-02-18 to 21:00 21-02-18
Wind:4 Knots from 310°
Visibility:6.21 statute miles
15000SCT Scattered
25000BKN Broken
FM 21:00 21-02-18 to 02:00 22-02-18
Wind:4 Knots from 270°
Visibility:6.21 statute miles
15000SCT Scattered
25000BKN Broken
FM 02:00 22-02-18 to 05:00 22-02-18
VCSH
Wind:2 Knots from 360°
Visibility:6.21 statute miles
4000BKN Broken
10000OVC Overcast
FM 05:00 22-02-18 to 07:00 22-02-18
-SN
Wind:6 Knots from 120°
Visibility:4.0 statute miles
1500SCT Scattered
3000OVC Overcast
FM 07:00 22-02-18 to 12:00 22-02-18
SN
Wind:6 Knots from 120°
Visibility:0.5 statute miles
600BKN Broken
1500OVC Overcast
FM 12:00 22-02-18 to 15:00 22-02-18
-SN
Wind:5 Knots from 90°
Visibility:4.0 statute miles
600SCT Scattered
1200BKN Broken
2500OVC Overcast
FM 15:00 22-02-18 to 18:00 22-02-18
Wind:5 Knots from 40°
Visibility:6.21 statute miles
2500SCT Scattered
10000BKN Broken